createdAt,value
2017-09-26T08:41:21.888Z,18.27
2017-09-26T08:54:49.350Z,14.32
2017-09-26T08:57:16.497Z,17.17
2017-09-26T08:59:44.647Z,17.00
2017-09-26T09:27:02.571Z,13.88
2017-09-26T09:37:46.771Z,17.15
2017-09-26T09:40:23.435Z,16.45
2017-09-26T09:43:06.674Z,15.23
2017-09-26T09:53:42.725Z,18.02
2017-09-26T09:59:53.112Z,16.60
2017-09-26T10:04:58.384Z,17.45
2017-09-26T10:07:25.948Z,16.23
2017-09-26T10:09:52.956Z,17.00
2017-09-26T10:12:20.047Z,18.10
2017-09-26T10:14:48.935Z,17.33
2017-09-26T10:19:53.303Z,19.42
2017-09-26T10:22:22.706Z,17.08
2017-09-26T10:24:52.720Z,16.05
2017-09-26T10:27:20.939Z,17.85
2017-09-26T10:29:49.518Z,19.08
2017-09-26T10:32:16.277Z,16.77
2017-09-26T10:34:47.824Z,16.45
2017-09-26T10:37:15.072Z,14.65
2017-09-26T10:39:42.175Z,17.58
2017-09-26T10:42:09.260Z,14.10
2017-09-26T10:44:36.266Z,18.27
2017-09-26T10:47:03.265Z,16.25
2017-09-26T10:49:30.881Z,16.83
2017-09-26T10:51:58.495Z,18.40
2017-09-26T10:54:25.926Z,16.80
2017-09-26T10:56:53.653Z,16.17
2017-09-26T10:59:22.039Z,16.42
2017-09-26T11:01:49.660Z,17.40
2017-09-26T11:04:16.756Z,18.00
2017-09-26T11:06:44.384Z,17.67
2017-09-26T11:09:11.879Z,17.80
2017-09-26T11:11:38.990Z,16.08
2017-09-26T11:14:08.419Z,17.12
2017-09-26T11:16:35.535Z,13.88
2017-09-26T11:19:02.986Z,15.32
2017-09-26T11:21:29.922Z,13.23
2017-09-26T11:23:58.062Z,16.20
2017-09-26T11:26:25.929Z,17.73
2017-09-26T11:28:53.499Z,14.87
2017-09-26T11:31:20.686Z,11.32
2017-09-26T11:36:20.071Z,16.23
2017-09-26T11:38:48.039Z,15.88
2017-09-26T11:41:15.038Z,15.93
2017-09-26T11:43:42.107Z,16.50
2017-09-26T11:46:09.218Z,16.77
2017-09-26T11:48:36.992Z,16.35
2017-09-26T11:51:03.834Z,16.80
2017-09-26T11:53:31.263Z,13.82
2017-09-26T11:55:59.485Z,17.02
2017-09-26T11:58:26.597Z,15.05
2017-09-26T12:00:55.778Z,15.68
2017-09-26T12:03:22.980Z,17.12
2017-09-26T12:05:53.467Z,14.52
2017-09-26T12:08:20.675Z,17.02
2017-09-26T12:10:48.350Z,14.80
2017-09-26T12:13:32.922Z,16.80
2017-09-26T12:15:59.635Z,16.02
2017-09-26T12:18:26.696Z,16.67
2017-09-26T12:20:53.847Z,14.65
2017-09-26T12:23:21.943Z,18.17
2017-09-26T12:25:49.011Z,17.40
2017-09-26T12:28:16.073Z,16.60
2017-09-26T12:30:43.112Z,16.45
2017-09-26T12:33:10.168Z,17.98
2017-09-26T12:35:38.041Z,16.50
2017-09-26T12:38:05.185Z,16.73
2017-09-26T12:40:32.004Z,17.77
2017-09-26T12:42:59.599Z,16.15
2017-09-26T12:45:26.733Z,16.45
2017-09-26T12:47:54.129Z,16.58
2017-09-26T12:50:21.250Z,18.40
2017-09-26T12:52:49.217Z,16.48
2017-09-26T12:55:25.606Z,17.30
2017-09-26T12:57:52.867Z,17.75
2017-09-26T13:00:23.106Z,15.60
2017-09-26T13:02:51.451Z,14.02
2017-09-26T13:05:18.502Z,16.35
2017-09-26T13:07:45.257Z,15.20
2017-09-26T13:10:12.351Z,17.60
2017-09-26T13:15:28.151Z,16.73
2017-09-26T13:20:33.756Z,17.37
2017-09-26T13:23:01.240Z,17.50
2017-09-26T13:25:28.180Z,16.45
2017-09-26T13:27:54.883Z,15.55
2017-09-26T13:30:22.473Z,14.48
2017-09-26T13:32:49.615Z,16.12
2017-09-26T13:35:16.728Z,16.30
2017-09-26T13:37:44.608Z,16.70
2017-09-26T13:40:14.851Z,16.67
2017-09-26T13:42:42.144Z,15.82
2017-09-26T13:45:09.233Z,15.88
2017-09-26T13:47:37.418Z,17.15
2017-09-26T13:50:04.462Z,17.25
2017-09-26T13:52:31.240Z,17.58
2017-09-26T13:54:58.281Z,18.65
2017-09-26T13:57:25.255Z,17.37
2017-09-26T13:59:52.302Z,16.25
2017-09-26T14:02:20.010Z,12.60
2017-09-26T14:05:00.684Z,14.25
2017-09-26T14:07:27.418Z,14.73
2017-09-26T14:09:54.176Z,15.60
2017-09-26T14:12:21.808Z,15.82
2017-09-26T14:14:48.557Z,16.02
2017-09-26T14:17:17.879Z,17.55
2017-09-26T14:19:44.938Z,15.88
2017-09-26T14:22:12.473Z,17.23
2017-09-26T14:24:39.533Z,16.83
2017-09-26T14:27:06.524Z,15.20
2017-09-26T14:29:33.607Z,14.63
2017-09-26T14:32:00.718Z,16.10
2017-09-26T14:34:28.050Z,13.82
2017-09-26T14:36:55.206Z,15.40
2017-09-26T14:39:21.928Z,15.90
2017-09-26T14:41:50.207Z,15.20
2017-09-26T14:44:17.241Z,12.95
2017-09-26T14:46:44.376Z,17.12
2017-09-26T14:49:12.750Z,15.90
2017-09-26T14:51:39.966Z,17.10
2017-09-26T14:54:08.152Z,15.77
2017-09-26T14:56:35.970Z,16.77
2017-09-26T14:59:02.999Z,15.95
2017-09-26T15:01:30.121Z,15.70
2017-09-26T15:03:57.115Z,15.55
2017-09-26T15:06:24.235Z,16.73
2017-09-26T15:08:51.298Z,15.38
2017-09-26T15:11:18.082Z,16.10
2017-09-26T15:13:45.362Z,16.52
2017-09-26T15:16:12.476Z,17.40
2017-09-26T15:18:39.600Z,16.65
2017-09-26T15:21:06.628Z,16.60
2017-09-26T15:23:34.439Z,16.02
2017-09-26T15:26:01.578Z,16.33
2017-09-26T15:28:28.601Z,15.35
2017-09-26T15:30:55.486Z,16.35
2017-09-26T15:33:22.185Z,14.63
2017-09-26T15:35:49.244Z,17.98
2017-09-26T15:38:16.194Z,17.17
2017-09-26T15:40:43.750Z,15.02
2017-09-26T15:43:10.739Z,15.82
2017-09-26T15:45:37.818Z,15.85
2017-09-26T15:48:04.900Z,16.08
2017-09-26T15:50:31.790Z,15.80
2017-09-26T15:52:58.845Z,16.10
2017-09-26T15:55:25.901Z,15.00
2017-09-26T15:57:52.849Z,14.75
2017-09-26T16:00:19.970Z,15.20
2017-09-26T16:02:47.084Z,15.60
2017-09-26T16:05:14.188Z,15.65
2017-09-26T16:07:42.218Z,14.80
2017-09-26T16:10:09.352Z,15.15
2017-09-26T16:12:36.826Z,15.90
2017-09-26T16:15:03.723Z,14.25
2017-09-26T16:17:30.562Z,15.73
2017-09-26T16:19:58.219Z,14.93
2017-09-26T16:22:25.254Z,15.15
2017-09-26T16:24:53.196Z,15.70
2017-09-26T16:27:20.203Z,18.90
2017-09-26T16:29:47.029Z,15.50
2017-09-26T16:34:56.844Z,15.88
2017-09-26T16:37:23.915Z,15.88
2017-09-26T16:39:51.406Z,14.82
2017-09-26T16:42:19.302Z,17.75
2017-09-26T16:44:46.235Z,17.95
2017-09-26T16:47:15.120Z,16.48
2017-09-26T16:49:42.881Z,16.60
2017-09-26T16:52:09.722Z,16.08
2017-09-26T16:54:36.875Z,18.02
2017-09-26T16:57:03.954Z,15.35
2017-09-26T16:59:31.710Z,14.75
2017-09-26T17:01:58.593Z,14.15
2017-09-26T17:04:26.483Z,14.35
2017-09-26T17:06:56.113Z,15.50
2017-09-26T17:09:23.159Z,14.95
2017-09-26T17:11:50.491Z,15.35
2017-09-26T17:16:49.925Z,20.75
2017-09-26T17:19:17.955Z,16.20
2017-09-26T17:21:46.871Z,17.98
2017-09-26T17:24:13.986Z,18.50
2017-09-26T17:26:41.085Z,18.37
2017-09-26T17:29:08.496Z,16.33
2017-09-26T17:31:35.509Z,15.35
2017-09-26T17:34:02.580Z,14.60
2017-09-26T17:36:31.346Z,14.52
2017-09-26T17:41:45.914Z,18.77
2017-09-26T17:52:24.065Z,16.80
2017-09-26T17:57:33.982Z,18.92
2017-09-26T18:00:07.053Z,18.02
2017-09-26T19:03:36.943Z,20.20
2017-09-26T19:28:05.226Z,21.33
2017-09-26T19:30:33.144Z,23.45
2017-09-26T19:33:06.678Z,20.52
2017-09-26T19:38:07.917Z,21.65
2017-09-26T19:40:35.336Z,23.02
2017-09-26T19:43:03.577Z,23.40
2017-09-26T19:48:02.015Z,23.45
2017-09-26T19:53:17.058Z,24.02
2017-09-26T19:55:50.597Z,21.90
2017-09-26T19:58:21.480Z,22.08
2017-09-26T20:00:53.091Z,25.60
2017-09-26T20:03:24.123Z,28.12
2017-09-26T20:05:52.808Z,27.52
2017-09-26T20:10:54.185Z,31.73
2017-09-26T20:13:21.638Z,29.60
2017-09-26T20:15:58.609Z,32.10
2017-09-26T20:18:27.938Z,29.67
2017-09-26T20:20:58.331Z,29.17
2017-09-26T20:26:03.175Z,26.60
2017-09-26T20:28:30.786Z,28.77
2017-09-26T20:31:02.084Z,25.08
2017-09-26T20:33:31.863Z,24.63
2017-09-26T20:36:00.247Z,26.17
2017-09-26T20:48:47.653Z,28.20
2017-09-26T20:56:22.722Z,33.13
2017-09-26T20:58:51.374Z,36.42
2017-09-26T21:01:19.234Z,30.35
2017-09-26T21:11:26.591Z,38.92
2017-09-26T21:13:54.829Z,34.35
2017-09-26T21:16:21.727Z,36.25
2017-09-26T21:18:48.840Z,34.92
2017-09-26T21:23:47.567Z,32.85
2017-09-26T21:26:20.850Z,31.58
2017-09-26T21:31:35.218Z,36.70
2017-09-26T21:44:19.847Z,27.73
2017-09-26T21:49:21.836Z,29.95
2017-09-26T21:54:23.009Z,29.75
2017-09-26T21:56:50.635Z,36.42
2017-09-26T21:59:20.398Z,39.35
2017-09-26T22:01:48.249Z,36.30
2017-09-26T22:06:47.176Z,42.10
2017-09-26T22:09:18.348Z,48.05
2017-09-26T22:11:46.590Z,46.17
2017-09-26T22:14:14.618Z,41.80
2017-09-26T22:16:43.432Z,43.47
2017-09-26T22:27:06.600Z,41.25
2017-09-26T22:29:33.988Z,39.47
2017-09-26T22:34:41.929Z,41.28
2017-09-26T22:37:12.780Z,38.10
2017-09-26T22:47:24.402Z,36.60
2017-09-26T22:49:52.862Z,38.10
2017-09-26T22:52:19.975Z,38.50
2017-09-26T23:02:38.271Z,34.50
2017-09-26T23:15:31.250Z,36.65
2017-09-26T23:18:00.731Z,39.38
2017-09-26T23:23:12.523Z,41.35
2017-09-26T23:25:42.264Z,44.33
2017-09-26T23:28:16.826Z,42.58
2017-09-26T23:30:45.753Z,41.83
2017-09-26T23:33:17.191Z,41.30
2017-09-26T23:35:45.470Z,40.28
2017-09-26T23:43:16.847Z,36.20
2017-09-26T23:50:49.995Z,38.08
2017-09-26T23:53:25.547Z,40.00
2017-09-26T23:58:33.386Z,40.08
